createdAt,value
2022-10-31T00:01:56.302Z,11.88
2022-10-31T00:04:24.275Z,11.81
2022-10-31T00:06:52.221Z,11.91
2022-10-31T00:09:20.314Z,11.97
2022-10-31T00:11:48.196Z,11.92
2022-10-31T00:14:16.142Z,11.67
2022-10-31T00:16:45.394Z,11.66
2022-10-31T00:19:13.314Z,11.82
2022-10-31T00:21:41.311Z,11.86
2022-10-31T00:24:09.998Z,11.91
2022-10-31T00:26:37.916Z,11.88
2022-10-31T00:29:05.986Z,11.86
2022-10-31T00:31:35.214Z,11.79
2022-10-31T00:34:05.010Z,11.71
2022-10-31T00:36:32.948Z,11.71
2022-10-31T00:39:03.801Z,11.72
2022-10-31T00:41:31.773Z,11.69
2022-10-31T00:43:59.839Z,11.69
2022-10-31T00:46:27.757Z,11.75
2022-10-31T00:48:55.793Z,11.73
2022-10-31T00:51:25.221Z,11.71
2022-10-31T00:53:53.260Z,11.76
2022-10-31T00:56:21.284Z,11.76
2022-10-31T00:58:49.508Z,11.64
2022-10-31T01:01:17.563Z,11.53
2022-10-31T01:03:45.628Z,11.55
2022-10-31T01:06:15.467Z,11.64
2022-10-31T01:08:45.295Z,11.64
2022-10-31T01:11:18.895Z,11.64
2022-10-31T01:13:47.229Z,11.63
2022-10-31T01:16:17.636Z,11.59
2022-10-31T01:18:45.955Z,11.59
2022-10-31T01:21:16.428Z,11.51
2022-10-31T01:23:48.122Z,11.54
2022-10-31T01:26:18.130Z,11.55
2022-10-31T01:28:48.517Z,11.66
2022-10-31T01:31:18.032Z,11.65
2022-10-31T01:33:46.240Z,11.67
2022-10-31T01:36:19.938Z,11.62
2022-10-31T01:38:53.505Z,11.63
2022-10-31T01:41:24.261Z,11.63
2022-10-31T01:44:01.358Z,11.65
2022-10-31T01:46:34.590Z,11.65
2022-10-31T01:49:04.690Z,11.54
2022-10-31T01:51:41.760Z,11.54
2022-10-31T01:54:17.804Z,11.64
2022-10-31T01:56:50.369Z,11.57
2022-10-31T01:59:21.987Z,11.52
2022-10-31T02:01:54.205Z,11.57
2022-10-31T02:04:25.139Z,11.47
2022-10-31T02:07:00.955Z,11.44
2022-10-31T02:09:34.408Z,11.51
2022-10-31T02:12:04.469Z,11.39
2022-10-31T02:14:33.812Z,11.37
2022-10-31T02:17:10.317Z,11.39
2022-10-31T02:19:49.094Z,11.39
2022-10-31T02:22:23.517Z,11.37
2022-10-31T02:25:05.012Z,11.44
2022-10-31T02:28:10.617Z,11.42
2022-10-31T02:30:58.067Z,11.38
2022-10-31T02:33:28.334Z,11.34
2022-10-31T02:36:06.933Z,11.34
2022-10-31T02:38:47.893Z,11.45
2022-10-31T02:41:29.887Z,11.46
2022-10-31T02:44:10.595Z,11.49
2022-10-31T02:46:49.017Z,11.40
2022-10-31T02:49:28.940Z,11.47
2022-10-31T02:51:57.287Z,11.45
2022-10-31T02:54:27.355Z,11.45
2022-10-31T02:57:01.955Z,11.42
2022-10-31T02:59:32.371Z,11.44
2022-10-31T03:02:20.638Z,11.38
2022-10-31T03:05:04.623Z,11.36
2022-10-31T03:07:40.788Z,11.35
2022-10-31T03:10:18.762Z,11.39
2022-10-31T03:12:55.489Z,11.43
2022-10-31T03:15:27.619Z,11.47
2022-10-31T03:18:02.125Z,11.51
2022-10-31T03:20:38.718Z,11.53
2022-10-31T03:23:13.215Z,11.59
2022-10-31T03:25:43.085Z,11.57
2022-10-31T03:28:14.006Z,11.65
2022-10-31T03:30:46.358Z,11.52
2022-10-31T03:33:23.571Z,11.59
2022-10-31T03:35:54.746Z,11.61
2022-10-31T03:38:24.276Z,11.63
2022-10-31T03:40:58.091Z,11.68
2022-10-31T03:43:34.329Z,11.67
2022-10-31T03:46:05.152Z,11.67
2022-10-31T03:48:35.820Z,11.64
2022-10-31T03:51:12.788Z,11.59
2022-10-31T03:53:47.587Z,11.59
2022-10-31T03:56:21.729Z,11.57
2022-10-31T03:58:57.694Z,11.49
2022-10-31T04:01:28.360Z,11.43
2022-10-31T04:03:59.813Z,11.43
2022-10-31T04:06:28.827Z,11.57
2022-10-31T04:09:01.399Z,11.54
2022-10-31T04:11:33.586Z,11.57
2022-10-31T04:14:23.478Z,11.57
2022-10-31T04:16:52.289Z,11.57
2022-10-31T04:19:26.369Z,11.57
2022-10-31T04:21:54.477Z,11.55
2022-10-31T04:24:22.741Z,11.56
2022-10-31T04:26:50.725Z,11.59
2022-10-31T04:29:21.272Z,11.62
2022-10-31T04:31:49.325Z,11.59
2022-10-31T04:34:17.602Z,11.61
2022-10-31T04:36:47.172Z,11.60
2022-10-31T04:39:22.683Z,11.66
2022-10-31T04:42:16.284Z,11.65
2022-10-31T04:44:44.304Z,11.59
2022-10-31T04:47:12.292Z,11.49
2022-10-31T04:49:40.290Z,11.39
2022-10-31T04:52:11.079Z,11.45
2022-10-31T04:54:39.034Z,11.52
2022-10-31T04:57:42.833Z,11.61
2022-10-31T05:00:12.394Z,11.53
2022-10-31T05:02:46.134Z,11.55
2022-10-31T05:05:14.798Z,11.58
2022-10-31T05:07:45.601Z,11.57
2022-10-31T05:10:17.264Z,11.40
2022-10-31T05:12:49.183Z,11.46
2022-10-31T05:15:35.838Z,11.43
2022-10-31T05:18:23.929Z,11.37
2022-10-31T05:20:54.744Z,11.38
2022-10-31T05:23:31.330Z,11.41
2022-10-31T05:26:01.292Z,11.48
2022-10-31T05:28:29.327Z,11.45
2022-10-31T05:30:57.391Z,11.52
2022-10-31T05:33:25.956Z,11.60
2022-10-31T05:36:12.456Z,11.59
2022-10-31T05:38:47.906Z,11.47
2022-10-31T05:41:25.338Z,11.36
2022-10-31T05:43:56.485Z,11.31
2022-10-31T05:46:29.860Z,11.37
2022-10-31T05:49:16.295Z,11.30
2022-10-31T05:52:02.974Z,11.31
2022-10-31T05:54:48.734Z,11.36
2022-10-31T05:57:16.687Z,11.28
2022-10-31T05:59:44.638Z,11.24
2022-10-31T06:02:12.616Z,11.26
2022-10-31T06:05:16.006Z,11.30
2022-10-31T06:07:44.684Z,11.30
2022-10-31T06:10:14.910Z,11.35
2022-10-31T06:12:43.087Z,11.27
2022-10-31T06:15:25.090Z,11.30
2022-10-31T06:18:03.214Z,11.48
2022-10-31T06:20:35.603Z,11.48
2022-10-31T06:23:05.990Z,11.41
2022-10-31T06:25:37.787Z,11.51
2022-10-31T06:28:06.900Z,11.51
2022-10-31T06:30:45.933Z,11.57
2022-10-31T06:33:13.891Z,11.55
2022-10-31T06:35:47.960Z,11.58
2022-10-31T06:38:17.429Z,11.65
2022-10-31T06:40:46.820Z,11.77
2022-10-31T06:43:37.356Z,11.69
2022-10-31T06:46:28.071Z,11.76
2022-10-31T06:49:16.281Z,11.80
2022-10-31T06:51:52.335Z,11.84
2022-10-31T06:54:20.322Z,11.80
2022-10-31T06:56:50.087Z,11.78
2022-10-31T06:59:18.803Z,11.89
2022-10-31T07:02:13.528Z,11.85
2022-10-31T07:04:43.999Z,11.88
2022-10-31T07:07:15.331Z,11.88
2022-10-31T07:09:43.989Z,11.88
2022-10-31T07:12:18.067Z,11.85
2022-10-31T07:14:55.344Z,11.84
2022-10-31T07:17:29.749Z,11.91
2022-10-31T07:20:00.792Z,11.97
2022-10-31T07:22:34.877Z,12.04
2022-10-31T07:25:04.956Z,12.07
2022-10-31T07:27:55.422Z,12.04
2022-10-31T07:30:23.721Z,12.02
2022-10-31T07:32:56.425Z,12.04
2022-10-31T07:35:27.861Z,12.10
2022-10-31T07:38:00.420Z,12.04
2022-10-31T07:40:29.559Z,12.02
2022-10-31T07:43:00.088Z,12.04
2022-10-31T07:46:04.704Z,12.15
2022-10-31T07:48:51.005Z,12.19
2022-10-31T07:51:37.255Z,12.09
2022-10-31T07:54:28.607Z,12.10
2022-10-31T07:56:56.542Z,12.09
2022-10-31T07:59:26.777Z,12.14
2022-10-31T08:01:55.674Z,12.24
2022-10-31T08:04:32.269Z,12.31
2022-10-31T08:07:18.965Z,12.39
2022-10-31T08:09:54.510Z,12.43
2022-10-31T08:12:26.491Z,12.46
2022-10-31T08:14:56.697Z,12.47
2022-10-31T08:17:24.799Z,12.54
2022-10-31T08:19:56.622Z,12.60
2022-10-31T08:22:41.193Z,12.59
2022-10-31T08:25:11.860Z,12.60
2022-10-31T08:27:40.617Z,12.60
2022-10-31T08:30:16.114Z,12.57
2022-10-31T08:33:02.556Z,12.68
2022-10-31T08:35:49.455Z,12.78
2022-10-31T08:38:46.290Z,12.83
2022-10-31T08:41:14.927Z,12.92
2022-10-31T08:43:43.146Z,12.91
2022-10-31T08:46:12.759Z,12.97
2022-10-31T08:48:42.326Z,12.96
2022-10-31T08:51:11.979Z,12.99
2022-10-31T08:53:39.918Z,13.13
2022-10-31T08:56:36.614Z,13.23
2022-10-31T08:59:11.415Z,13.18
2022-10-31T09:01:56.408Z,13.21
2022-10-31T09:04:25.119Z,13.27
2022-10-31T09:09:41.102Z,13.37
2022-10-31T09:12:09.265Z,13.40
2022-10-31T09:14:49.738Z,13.45
2022-10-31T09:17:33.481Z,13.38
2022-10-31T09:20:27.717Z,13.39
2022-10-31T09:23:00.623Z,13.41
2022-10-31T09:25:30.587Z,13.54
2022-10-31T09:28:21.029Z,13.65
2022-10-31T09:30:50.124Z,13.68
2022-10-31T09:33:26.740Z,13.55
2022-10-31T09:36:14.687Z,13.51
2022-10-31T09:38:43.348Z,13.54
2022-10-31T09:41:21.713Z,13.54
2022-10-31T09:43:57.834Z,13.61
2022-10-31T09:46:34.407Z,13.71
2022-10-31T09:49:26.756Z,13.84
2022-10-31T09:52:00.977Z,13.84
2022-10-31T09:54:39.083Z,13.74
2022-10-31T09:57:12.869Z,13.74
2022-10-31T09:59:44.012Z,13.65
2022-10-31T10:02:18.813Z,13.58
2022-10-31T10:04:55.310Z,13.64
2022-10-31T10:07:44.214Z,13.67
2022-10-31T10:10:24.433Z,13.81
2022-10-31T10:13:24.325Z,13.84
2022-10-31T10:16:05.853Z,13.82
2022-10-31T10:18:45.729Z,13.84
2022-10-31T10:21:26.453Z,13.76
2022-10-31T10:24:11.330Z,13.69
2022-10-31T10:26:43.687Z,13.72
2022-10-31T10:29:31.286Z,13.74
2022-10-31T10:32:03.623Z,13.83
2022-10-31T10:34:39.369Z,13.92
2022-10-31T10:37:22.743Z,13.99
2022-10-31T10:39:56.152Z,13.97
2022-10-31T10:42:44.906Z,14.01
2022-10-31T10:45:34.104Z,14.20
2022-10-31T10:48:11.054Z,14.23
2022-10-31T10:50:44.186Z,14.34
2022-10-31T10:53:33.066Z,14.43
2022-10-31T10:56:05.322Z,14.43
2022-10-31T10:58:33.413Z,14.44
2022-10-31T11:01:01.510Z,14.41
2022-10-31T11:03:29.737Z,14.54
2022-10-31T11:05:59.863Z,14.56
2022-10-31T11:08:30.991Z,14.69
2022-10-31T11:11:03.027Z,14.70
2022-10-31T11:13:32.165Z,14.54
2022-10-31T11:16:01.336Z,14.50
2022-10-31T11:18:32.189Z,14.54
2022-10-31T11:21:02.248Z,14.61
2022-10-31T11:23:32.233Z,14.64
2022-10-31T11:26:03.469Z,14.71
2022-10-31T11:28:35.287Z,14.73
2022-10-31T11:31:08.818Z,14.72
2022-10-31T11:33:39.857Z,14.78
2022-10-31T11:36:23.299Z,15.42
2022-10-31T11:38:54.003Z,16.23
2022-10-31T11:41:28.175Z,16.31
2022-10-31T11:43:59.549Z,16.55
2022-10-31T11:46:35.436Z,17.21
2022-10-31T11:49:05.617Z,17.84
2022-10-31T11:51:36.885Z,18.40
2022-10-31T11:54:07.720Z,19.14
2022-10-31T11:56:44.871Z,19.65
2022-10-31T11:59:20.838Z,19.87
2022-10-31T12:01:50.739Z,20.39
2022-10-31T12:04:20.342Z,20.41
2022-10-31T12:06:51.043Z,20.85
2022-10-31T12:09:25.567Z,20.94
2022-10-31T12:12:07.659Z,21.24
2022-10-31T12:14:45.865Z,20.94
2022-10-31T12:17:18.024Z,21.29
2022-10-31T12:19:57.114Z,21.79
2022-10-31T12:22:33.193Z,22.39
2022-10-31T12:25:24.275Z,22.38
2022-10-31T12:28:04.675Z,22.49
2022-10-31T12:30:48.968Z,22.56
2022-10-31T12:33:32.256Z,23.01
2022-10-31T12:36:28.305Z,22.99
2022-10-31T12:39:26.979Z,22.82
2022-10-31T12:42:03.976Z,23.10
2022-10-31T12:44:53.224Z,23.34
2022-10-31T12:47:42.475Z,22.97
2022-10-31T12:50:37.386Z,23.01
2022-10-31T12:56:07.335Z,22.83
2022-10-31T12:58:40.813Z,23.04
2022-10-31T13:01:21.264Z,23.11
2022-10-31T13:03:54.019Z,23.09
2022-10-31T13:06:26.728Z,23.03
2022-10-31T13:08:58.120Z,22.97
2022-10-31T13:11:31.923Z,22.98
2022-10-31T13:14:07.555Z,22.84
2022-10-31T13:16:39.907Z,22.85
2022-10-31T13:19:15.968Z,22.91
2022-10-31T13:21:53.793Z,22.99
2022-10-31T13:24:26.149Z,23.06
2022-10-31T13:26:57.007Z,22.84
2022-10-31T13:29:33.215Z,22.95
2022-10-31T13:32:02.568Z,22.91
2022-10-31T13:34:39.609Z,22.83
2022-10-31T13:37:18.061Z,22.86
2022-10-31T13:39:50.850Z,22.79
2022-10-31T13:42:25.321Z,22.66
2022-10-31T13:44:54.821Z,22.45
2022-10-31T13:47:25.963Z,22.43
2022-10-31T13:49:54.088Z,22.38
2022-10-31T13:52:26.421Z,22.30
2022-10-31T13:54:57.883Z,22.18
2022-10-31T13:57:35.295Z,22.16
2022-10-31T14:00:09.199Z,22.07
2022-10-31T14:02:50.001Z,21.97
2022-10-31T14:05:25.055Z,21.91
2022-10-31T14:07:54.608Z,21.75
2022-10-31T14:10:28.444Z,21.57
2022-10-31T14:13:05.837Z,21.47
2022-10-31T14:15:36.317Z,21.36
2022-10-31T14:18:07.464Z,21.52
2022-10-31T14:20:39.981Z,21.36
2022-10-31T14:23:34.111Z,21.24
2022-10-31T14:26:32.204Z,21.18
2022-10-31T14:29:02.295Z,20.82
2022-10-31T14:31:37.509Z,20.64
2022-10-31T14:34:21.580Z,20.53
2022-10-31T14:37:20.685Z,20.33
2022-10-31T14:40:03.389Z,20.19
2022-10-31T14:42:49.406Z,19.88
2022-10-31T14:45:30.589Z,19.67
2022-10-31T14:48:11.247Z,19.47
2022-10-31T14:50:49.288Z,19.31
2022-10-31T14:53:22.944Z,19.04
2022-10-31T14:55:54.453Z,18.86
2022-10-31T14:58:39.206Z,18.71
2022-10-31T15:01:08.612Z,18.57
2022-10-31T15:03:44.763Z,18.55
2022-10-31T15:06:23.538Z,18.32
2022-10-31T15:08:53.398Z,18.13
2022-10-31T15:11:24.178Z,18.03
2022-10-31T15:13:54.105Z,17.86
2022-10-31T15:16:25.091Z,17.65
2022-10-31T15:19:01.731Z,17.55
2022-10-31T15:21:30.900Z,17.39
2022-10-31T15:24:00.899Z,17.27
2022-10-31T15:26:33.338Z,17.22
2022-10-31T15:29:03.168Z,17.06
2022-10-31T15:31:32.591Z,16.96
2022-10-31T15:34:05.451Z,17.00
2022-10-31T15:36:37.350Z,16.77
2022-10-31T15:39:06.569Z,16.70
2022-10-31T15:41:37.287Z,16.59
2022-10-31T15:44:14.903Z,16.47
2022-10-31T15:46:43.438Z,16.33
2022-10-31T15:49:30.405Z,16.22
2022-10-31T15:52:00.950Z,16.11
2022-10-31T15:54:30.404Z,15.97
2022-10-31T15:56:58.395Z,15.91
2022-10-31T15:59:30.975Z,15.86
2022-10-31T16:02:03.586Z,15.73
2022-10-31T16:04:33.056Z,15.67
2022-10-31T16:07:03.621Z,15.70
2022-10-31T16:09:31.623Z,15.55
2022-10-31T16:12:00.566Z,15.38
2022-10-31T16:14:30.218Z,15.43
2022-10-31T16:17:00.958Z,15.31
2022-10-31T16:19:33.874Z,15.15
2022-10-31T16:22:07.446Z,15.12
2022-10-31T16:24:40.093Z,15.05
2022-10-31T16:27:17.906Z,15.04
2022-10-31T16:29:47.943Z,14.96
2022-10-31T16:32:30.708Z,14.95
2022-10-31T16:35:20.014Z,14.94
2022-10-31T16:37:47.983Z,14.99
2022-10-31T16:40:16.727Z,14.81
2022-10-31T16:42:46.364Z,14.74
2022-10-31T16:45:18.806Z,14.71
2022-10-31T16:47:47.089Z,14.65
2022-10-31T16:50:19.390Z,14.57
2022-10-31T16:55:36.782Z,14.43
2022-10-31T16:58:04.853Z,14.36
2022-10-31T17:00:32.857Z,14.34
2022-10-31T17:03:01.281Z,14.32
2022-10-31T17:05:32.939Z,14.34
2022-10-31T17:08:01.479Z,14.30
2022-10-31T17:10:29.728Z,14.27
2022-10-31T17:13:00.097Z,14.25
2022-10-31T17:15:29.856Z,14.27
2022-10-31T17:17:58.634Z,14.19
2022-10-31T17:20:27.699Z,13.95
2022-10-31T17:22:57.728Z,13.94
2022-10-31T17:25:27.945Z,13.89
2022-10-31T17:27:56.066Z,13.88
2022-10-31T17:30:24.449Z,13.89
2022-10-31T17:32:53.427Z,13.82
2022-10-31T17:35:21.366Z,13.81
2022-10-31T17:37:49.880Z,13.71
2022-10-31T17:40:22.019Z,13.65
2022-10-31T17:42:53.821Z,13.58
2022-10-31T17:45:22.722Z,13.55
2022-10-31T17:47:51.679Z,13.49
2022-10-31T17:50:20.063Z,13.53
2022-10-31T17:52:49.082Z,13.60
2022-10-31T17:55:17.329Z,13.54
2022-10-31T17:57:47.177Z,13.53
2022-10-31T18:00:17.360Z,13.41
2022-10-31T18:02:45.609Z,13.36
2022-10-31T18:05:13.773Z,13.32
2022-10-31T18:07:41.746Z,13.26
2022-10-31T18:10:10.719Z,13.27
2022-10-31T18:12:39.062Z,13.25
2022-10-31T18:15:09.431Z,13.25
2022-10-31T18:17:41.054Z,13.22
2022-10-31T18:20:11.360Z,13.17
2022-10-31T18:22:39.571Z,13.06
2022-10-31T18:25:09.356Z,12.95
2022-10-31T18:27:37.371Z,12.97
2022-10-31T18:30:06.236Z,12.96
2022-10-31T18:32:36.461Z,12.92
2022-10-31T18:35:05.971Z,12.94
2022-10-31T18:37:34.071Z,12.89
2022-10-31T18:40:02.047Z,12.85
2022-10-31T18:42:30.027Z,12.82
2022-10-31T18:45:00.265Z,12.71
2022-10-31T18:47:37.324Z,12.63
2022-10-31T18:50:05.899Z,12.57
2022-10-31T18:52:33.860Z,12.55
2022-10-31T18:55:01.808Z,12.44
2022-10-31T18:57:29.936Z,12.41
2022-10-31T18:59:57.950Z,12.40
2022-10-31T19:02:26.012Z,12.38
2022-10-31T19:04:55.485Z,12.35
2022-10-31T19:07:23.769Z,12.30
2022-10-31T19:09:51.789Z,12.26
2022-10-31T19:12:19.723Z,12.25
2022-10-31T19:14:50.720Z,12.24
2022-10-31T19:17:21.444Z,12.16
2022-10-31T19:19:49.422Z,12.15
2022-10-31T19:22:18.740Z,12.14
2022-10-31T19:24:46.700Z,12.26
2022-10-31T19:27:14.821Z,12.23
2022-10-31T19:29:43.222Z,12.24
2022-10-31T19:32:11.177Z,12.19
2022-10-31T19:34:39.113Z,12.18
2022-10-31T19:37:07.063Z,12.15
2022-10-31T19:39:41.206Z,12.10
2022-10-31T19:42:11.861Z,12.00
2022-10-31T19:44:39.840Z,11.98
2022-10-31T19:47:07.774Z,11.85
2022-10-31T19:49:35.710Z,11.86
2022-10-31T19:52:03.705Z,11.82
2022-10-31T19:54:32.158Z,11.79
2022-10-31T19:57:02.343Z,11.73
2022-10-31T19:59:32.944Z,11.67
2022-10-31T20:02:04.693Z,11.72
2022-10-31T20:04:34.120Z,11.76
2022-10-31T20:07:02.084Z,11.79
2022-10-31T20:09:30.008Z,11.72
2022-10-31T20:11:57.977Z,11.73
2022-10-31T20:14:27.290Z,11.64
2022-10-31T20:16:55.316Z,11.60
2022-10-31T20:19:24.232Z,11.60
2022-10-31T20:21:52.126Z,11.59
2022-10-31T20:24:20.544Z,11.53
2022-10-31T20:26:48.519Z,11.57
2022-10-31T20:29:16.920Z,11.53
2022-10-31T20:31:47.514Z,11.38
2022-10-31T20:34:15.971Z,11.38
2022-10-31T20:36:43.947Z,11.34
2022-10-31T20:39:11.964Z,11.37
2022-10-31T20:41:40.090Z,11.36
2022-10-31T20:44:08.264Z,11.26
2022-10-31T20:46:36.355Z,11.17
2022-10-31T20:49:05.737Z,11.18
2022-10-31T20:51:33.870Z,11.22
2022-10-31T20:54:02.178Z,11.13
2022-10-31T20:56:30.642Z,11.12
2022-10-31T20:58:59.111Z,11.04
2022-10-31T21:01:28.892Z,11.07
2022-10-31T21:03:58.661Z,10.97
2022-10-31T21:06:28.980Z,10.77
2022-10-31T21:08:57.605Z,10.77
2022-10-31T21:11:27.698Z,10.71
2022-10-31T21:13:56.042Z,10.61
2022-10-31T21:16:26.243Z,10.66
2022-10-31T21:18:54.619Z,10.46
2022-10-31T21:21:29.220Z,10.45
2022-10-31T21:24:04.054Z,10.29
2022-10-31T21:26:34.518Z,10.17
2022-10-31T21:29:03.400Z,10.12
2022-10-31T21:31:31.617Z,10.12
2022-10-31T21:33:59.831Z,10.07
2022-10-31T21:36:27.924Z,10.01
2022-10-31T21:38:57.025Z,10.13
2022-10-31T21:41:27.450Z,10.02
2022-10-31T21:43:56.149Z,9.96
2022-10-31T21:46:25.758Z,9.93
2022-10-31T21:48:54.431Z,9.86
2022-10-31T21:51:24.154Z,9.87
2022-10-31T21:54:10.273Z,9.72
2022-10-31T21:56:39.948Z,9.54
2022-10-31T21:59:08.088Z,9.52
2022-10-31T22:01:36.952Z,9.41
2022-10-31T22:04:05.713Z,9.44
2022-10-31T22:06:33.717Z,9.36
2022-10-31T22:09:03.681Z,9.35
2022-10-31T22:11:31.719Z,9.28
2022-10-31T22:14:01.857Z,9.20
2022-10-31T22:16:31.367Z,9.24
2022-10-31T22:19:05.002Z,9.17
2022-10-31T22:21:37.359Z,9.21
2022-10-31T22:24:07.682Z,9.24
2022-10-31T22:26:36.453Z,9.17
2022-10-31T22:29:07.619Z,9.15
2022-10-31T22:31:38.387Z,9.22
2022-10-31T22:34:06.402Z,9.29
2022-10-31T22:36:34.359Z,9.33
2022-10-31T22:39:02.463Z,9.47
2022-10-31T22:41:32.785Z,9.52
2022-10-31T22:44:01.777Z,9.45
2022-10-31T22:46:33.420Z,9.35
2022-10-31T22:49:03.365Z,9.29
2022-10-31T22:51:33.195Z,9.38
2022-10-31T22:54:01.235Z,9.20
2022-10-31T22:56:31.010Z,9.26
2022-10-31T22:58:59.799Z,9.26
2022-10-31T23:01:30.257Z,9.21
2022-10-31T23:04:00.346Z,9.14
2022-10-31T23:06:31.449Z,9.28
2022-10-31T23:09:01.091Z,9.27
2022-10-31T23:11:32.371Z,9.24
2022-10-31T23:14:09.488Z,9.19
2022-10-31T23:16:38.569Z,9.21
2022-10-31T23:19:09.144Z,9.24
2022-10-31T23:21:57.384Z,9.17
2022-10-31T23:24:36.736Z,9.18
2022-10-31T23:27:10.286Z,9.25
2022-10-31T23:29:44.910Z,9.20
2022-10-31T23:32:19.178Z,9.13
2022-10-31T23:34:49.793Z,9.12
2022-10-31T23:37:19.656Z,9.14
2022-10-31T23:39:48.521Z,9.17
2022-10-31T23:42:17.135Z,9.08
2022-10-31T23:44:45.916Z,9.09
2022-10-31T23:47:14.460Z,9.15
2022-10-31T23:49:42.543Z,9.12
2022-10-31T23:52:12.466Z,9.06
2022-10-31T23:54:40.993Z,9.05
2022-10-31T23:57:09.221Z,9.07
2022-10-31T23:59:37.476Z,9.05
